Terminal Aerodrome Forecast
Issued by NWS

Home | Current Version | Previous Version | Text Only | Print | Product List | Glossary On
Versions: 1 2 3 4 5 6 7 8 9 10 11 12 13 14 15 16 17
063
FTUS43 KBIS 270313 AAB
TAFJMS
TAF AMD
KJMS 270313Z 2703/2724 03011KT P6SM SCT027 OVC035
     FM270500 01010KT P6SM BKN025
     FM270800 36010KT P6SM OVC020
     FM271400 35012KT P6SM BKN020
     FM271800 34013G21KT P6SM BKN035
     FM272000 34013G21KT P6SM SCT035=

USA.gov is the U.S. government's official web portal to all federal, state and local government web resources and services.